Time;durP1;ratioP1;P1;durP2;ratioP2;P2;SDS_P1;SDS_P2;PMS_P1;PMS_P2;Temp;Humidity;BMP_temperature;BMP_pressure;BME280_temperature;BME280_humidity;BME280_pressure;Samples;Min_cycle;Max_cycle;Signal;HPM_P1;HPM_P2
2022/05/12 00:00:19;;;;;;;12.88;5.35;;;7.90;74.00;;;;;;5073553;28;20029;-83
2022/05/12 00:02:45;;;;;;;11.10;5.90;;;7.90;74.10;;;;;;5073468;28;20364;-83
2022/05/12 00:05:12;;;;;;;11.32;6.20;;;7.80;74.40;;;;;;5074661;28;20035;-83
2022/05/12 00:07:38;;;;;;;12.38;6.03;;;7.90;74.90;;;;;;5074383;28;20029;-83
2022/05/12 00:10:06;;;;;;;13.52;6.20;;;7.90;74.60;;;;;;5074608;28;20031;-83
2022/05/12 00:12:31;;;;;;;14.80;6.40;;;7.90;74.20;;;;;;5074564;28;20099;-83
2022/05/12 00:14:57;;;;;;;9.88;5.53;;;7.90;74.20;;;;;;5073213;28;20102;-83
2022/05/12 00:17:23;;;;;;;12.48;6.22;;;7.90;74.10;;;;;;5074153;28;20059;-83
2022/05/12 00:19:49;;;;;;;11.50;6.22;;;7.90;74.10;;;;;;5074118;28;20483;-83
2022/05/12 00:22:14;;;;;;;12.95;6.55;;;7.90;74.40;;;;;;5073375;28;20536;-83
2022/05/12 00:24:40;;;;;;;13.48;5.68;;;7.90;74.50;;;;;;5074093;28;20024;-83
2022/05/12 00:27:06;;;;;;;14.07;5.70;;;7.90;74.30;;;;;;5072978;28;20024;-83
2022/05/12 00:29:32;;;;;;;14.20;6.65;;;7.90;74.50;;;;;;5073946;28;20119;-84
2022/05/12 00:31:58;;;;;;;14.63;6.38;;;7.90;75.20;;;;;;5072969;28;20024;-83
2022/05/12 00:34:24;;;;;;;13.45;5.45;;;7.90;75.00;;;;;;5074493;28;20043;-83
2022/05/12 00:36:50;;;;;;;10.95;5.47;;;7.90;75.10;;;;;;5072923;28;20028;-83
2022/05/12 00:39:16;;;;;;;13.52;5.50;;;7.90;74.80;;;;;;5072769;28;20028;-83
2022/05/12 00:41:42;;;;;;;14.10;6.13;;;7.90;75.30;;;;;;5074133;28;20070;-83
2022/05/12 00:44:10;;;;;;;8.10;4.75;;;7.90;75.50;;;;;;5072739;28;20517;-83
2022/05/12 00:46:40;;;;;;;11.20;5.30;;;7.90;75.20;;;;;;5073988;28;20029;-83
2022/05/12 00:49:14;;;;;;;13.05;5.68;;;7.90;75.50;;;;;;5072958;28;20024;-83
2022/05/12 00:51:45;;;;;;;9.88;5.60;;;7.90;75.70;;;;;;5072915;28;20035;-83
2022/05/12 00:54:18;;;;;;;9.55;5.03;;;7.90;75.50;;;;;;5072725;28;20483;-83
2022/05/12 00:56:44;;;;;;;10.60;5.60;;;7.90;75.50;;;;;;5074212;28;20033;-83
2022/05/12 00:59:22;;;;;;;11.07;5.45;;;8.00;76.10;;;;;;5073574;28;20471;-83
2022/05/12 01:01:48;;;;;;;9.35;5.45;;;8.00;75.70;;;;;;5072528;28;20390;-83
2022/05/12 01:04:15;;;;;;;11.85;5.75;;;8.10;75.60;;;;;;5072300;28;20135;-83
2022/05/12 01:06:41;;;;;;;10.57;5.25;;;8.10;75.70;;;;;;5072172;28;20021;-83
2022/05/12 01:09:07;;;;;;;14.10;5.65;;;8.20;75.70;;;;;;5072153;28;20112;-83
2022/05/12 01:11:34;;;;;;;11.73;4.95;;;8.20;75.70;;;;;;5072124;28;20056;-83
2022/05/12 01:14:04;;;;;;;13.77;5.47;;;8.30;75.30;;;;;;5072404;28;20032;-83
2022/05/12 01:16:47;;;;;;;11.52;5.82;;;8.40;75.30;;;;;;5072436;28;20100;-83
2022/05/12 01:19:25;;;;;;;12.88;5.68;;;8.40;75.30;;;;;;5072034;28;20109;-83
2022/05/12 01:21:52;;;;;;;10.07;5.45;;;8.50;75.30;;;;;;5072404;28;20028;-83
2022/05/12 01:24:20;;;;;;;9.93;4.80;;;8.50;75.10;;;;;;5073273;28;20137;-83
2022/05/12 01:26:46;;;;;;;10.25;5.07;;;8.60;75.10;;;;;;5073513;28;20090;-82
2022/05/12 01:29:12;;;;;;;11.93;4.93;;;8.60;74.60;;;;;;5073133;28;20410;-83
2022/05/12 01:31:39;;;;;;;7.25;4.13;;;8.60;74.50;;;;;;5073173;28;20028;-83
2022/05/12 01:34:08;;;;;;;9.40;5.15;;;8.70;74.00;;;;;;5071833;28;20486;-83
2022/05/12 01:36:34;;;;;;;9.75;5.15;;;8.70;74.50;;;;;;5073479;28;20527;-83
2022/05/12 01:39:00;;;;;;;9.07;4.40;;;8.80;73.80;;;;;;5071816;28;20060;-83
2022/05/12 01:41:26;;;;;;;8.55;4.63;;;8.80;73.90;;;;;;5074232;28;20032;-83
2022/05/12 01:43:52;;;;;;;9.43;4.95;;;8.80;73.80;;;;;;5077468;28;20478;-82
2022/05/12 01:46:18;;;;;;;6.75;4.35;;;8.80;73.80;;;;;;5076152;28;20493;-83
2022/05/12 01:48:44;;;;;;;8.80;4.53;;;8.80;73.40;;;;;;5076238;28;20028;-82
2022/05/12 01:51:11;;;;;;;8.07;4.50;;;8.80;73.40;;;;;;5075954;28;20025;-83
2022/05/12 01:53:37;;;;;;;7.10;4.60;;;8.80;73.40;;;;;;5075993;28;20021;-83
2022/05/12 01:56:05;;;;;;;9.00;4.97;;;8.80;73.60;;;;;;5075700;28;20027;-83
2022/05/12 01:58:32;;;;;;;9.20;4.93;;;8.80;73.40;;;;;;5077419;28;20024;-83
2022/05/12 02:00:58;;;;;;;11.63;4.78;;;8.90;73.30;;;;;;5075429;28;20025;-83
2022/05/12 02:03:24;;;;;;;13.88;5.72;;;8.90;73.30;;;;;;5076643;28;20096;-83
2022/05/12 02:05:50;;;;;;;8.77;5.25;;;8.90;73.00;;;;;;5075869;28;20024;-83
2022/05/12 02:08:17;;;;;;;12.98;5.22;;;9.00;73.10;;;;;;5075654;28;20024;-83
2022/05/12 02:10:47;;;;;;;13.02;6.18;;;9.00;73.00;;;;;;5075412;28;20021;-83
2022/05/12 02:13:15;;;;;;;13.07;5.90;;;9.00;73.20;;;;;;5076742;28;20021;-83
2022/05/12 02:15:41;;;;;;;10.07;4.72;;;9.00;72.90;;;;;;5075521;28;20024;-83
2022/05/12 02:18:08;;;;;;;8.63;4.80;;;9.10;72.80;;;;;;5075186;28;20115;-83
2022/05/12 02:20:34;;;;;;;8.10;4.82;;;9.10;72.80;;;;;;5076448;28;20075;-82
2022/05/12 02:23:00;;;;;;;12.65;5.00;;;9.10;73.10;;;;;;5075439;28;20356;-83
2022/05/12 02:25:26;;;;;;;9.38;4.80;;;9.10;73.00;;;;;;5076648;28;20024;-83
2022/05/12 02:27:52;;;;;;;10.57;4.97;;;9.10;72.80;;;;;;5075340;28;20478;-82
2022/05/12 02:30:25;;;;;;;13.88;5.30;;;9.10;72.60;;;;;;5076510;28;20069;-83
2022/05/12 02:32:51;;;;;;;9.65;4.65;;;9.10;72.90;;;;;;5075319;28;20051;-83
2022/05/12 02:35:17;;;;;;;8.65;4.75;;;9.20;72.50;;;;;;5075140;28;20383;-82
2022/05/12 02:37:44;;;;;;;9.00;4.70;;;9.20;72.50;;;;;;5076647;28;20035;-83
2022/05/12 02:40:12;;;;;;;10.55;5.22;;;9.30;72.20;;;;;;5075928;28;20048;-83
2022/05/12 02:42:38;;;;;;;12.95;5.22;;;9.30;72.70;;;;;;5074813;28;20048;-83
2022/05/12 02:45:06;;;;;;;7.90;4.93;;;9.40;72.50;;;;;;5074918;28;20020;-82
2022/05/12 02:47:31;;;;;;;7.80;4.90;;;9.40;72.10;;;;;;5074824;28;20021;-83
2022/05/12 02:49:57;;;;;;;9.30;4.50;;;9.40;72.20;;;;;;5074952;28;20047;-83
2022/05/12 02:52:23;;;;;;;6.88;4.65;;;9.40;72.00;;;;;;5073979;28;20024;-82
2022/05/12 02:54:49;;;;;;;13.68;4.90;;;9.40;71.80;;;;;;5076387;28;20059;-82
2022/05/12 02:57:15;;;;;;;10.63;4.85;;;9.40;71.60;;;;;;5074816;28;20059;-82
2022/05/12 02:59:40;;;;;;;7.60;4.95;;;9.40;71.80;;;;;;5075903;28;20467;-82
2022/05/12 03:02:06;;;;;;;8.70;4.93;;;9.40;72.00;;;;;;5075950;28;20024;-82
2022/05/12 03:04:33;;;;;;;10.10;4.95;;;9.30;72.00;;;;;;5075859;28;20431;-83
2022/05/12 03:06:59;;;;;;;10.00;4.93;;;9.30;71.90;;;;;;5074658;28;20024;-83
2022/05/12 03:09:25;;;;;;;10.82;4.75;;;9.30;72.10;;;;;;5074549;28;20111;-82
2022/05/12 03:11:51;;;;;;;11.35;4.78;;;9.20;72.00;;;;;;5075848;28;20020;-82
2022/05/12 03:14:17;;;;;;;11.10;4.88;;;9.30;72.10;;;;;;5074429;28;20024;-83
2022/05/12 03:16:43;;;;;;;9.32;4.47;;;9.20;72.10;;;;;;5075687;28;20071;-82
2022/05/12 03:19:10;;;;;;;10.23;4.80;;;9.20;72.70;;;;;;5074043;28;20101;-82
2022/05/12 03:21:36;;;;;;;9.73;4.68;;;9.30;72.90;;;;;;5074563;28;20550;-83
2022/05/12 03:24:04;;;;;;;8.93;4.70;;;9.30;72.60;;;;;;5074629;28;20391;-81
2022/05/12 03:26:30;;;;;;;9.50;4.75;;;9.30;72.40;;;;;;5074225;28;20485;-82
2022/05/12 03:28:56;;;;;;;7.65;4.28;;;9.30;72.30;;;;;;5075071;28;20033;-82
2022/05/12 03:31:22;;;;;;;9.65;4.07;;;9.30;72.40;;;;;;5074114;28;20029;-82
2022/05/12 03:33:48;;;;;;;8.70;4.80;;;9.30;72.40;;;;;;5075630;28;20434;-82
2022/05/12 03:36:15;;;;;;;10.80;4.47;;;9.20;72.80;;;;;;5074037;28;20054;-82
2022/05/12 03:38:41;;;;;;;10.68;4.38;;;9.30;72.70;;;;;;5073980;28;20058;-82
2022/05/12 03:41:07;;;;;;;12.00;5.05;;;9.30;73.00;;;;;;5073574;28;20024;-82
2022/05/12 03:46:17;;;;;;;10.60;4.45;;;9.30;73.10;;;;;;5075377;28;20046;-82
2022/05/12 03:48:43;;;;;;;10.45;4.55;;;9.30;72.80;;;;;;5073465;28;20526;-82
2022/05/12 03:51:09;;;;;;;9.40;4.72;;;9.30;72.80;;;;;;5073278;28;20107;-82
2022/05/12 03:53:36;;;;;;;7.38;4.13;;;9.40;72.90;;;;;;5073641;28;20111;-82
2022/05/12 03:56:03;;;;;;;7.85;4.65;;;9.40;72.90;;;;;;5074643;28;20502;-82
2022/05/12 03:58:29;;;;;;;12.88;4.82;;;9.50;73.00;;;;;;5073615;28;20433;-82
2022/05/12 04:00:55;;;;;;;9.30;4.80;;;9.60;73.00;;;;;;5074326;28;20031;-82
2022/05/12 04:03:21;;;;;;;11.30;5.28;;;9.70;73.40;;;;;;5073985;28;20114;-82
2022/05/12 04:05:47;;;;;;;10.95;4.85;;;9.80;73.20;;;;;;5074895;28;20036;-82
2022/05/12 04:08:13;;;;;;;10.30;4.50;;;10.00;73.10;;;;;;5073417;28;20027;-83
2022/05/12 04:10:39;;;;;;;13.30;4.88;;;10.30;73.00;;;;;;5072900;28;20024;-83
2022/05/12 04:13:05;;;;;;;8.13;4.57;;;10.50;72.50;;;;;;5073309;28;20036;-82
2022/05/12 04:15:30;;;;;;;9.82;5.10;;;10.90;72.50;;;;;;5073162;28;20028;-83
2022/05/12 04:18:03;;;;;;;11.20;5.22;;;11.30;71.80;;;;;;5073356;28;20029;-83
2022/05/12 04:20:31;;;;;;;11.45;4.97;;;11.70;70.60;;;;;;5072800;28;20055;-83
2022/05/12 04:22:57;;;;;;;11.55;4.88;;;12.10;69.30;;;;;;5074414;28;20479;-82
2022/05/12 04:25:23;;;;;;;8.98;4.68;;;12.50;69.20;;;;;;5072988;28;20020;-82
2022/05/12 04:27:49;;;;;;;10.68;4.82;;;12.80;68.70;;;;;;5073258;28;20407;-82
2022/05/12 04:30:18;;;;;;;8.57;4.68;;;13.10;68.60;;;;;;5074211;28;20066;-82
2022/05/12 04:32:44;;;;;;;9.00;4.70;;;13.50;67.70;;;;;;5073040;28;20056;-83
2022/05/12 04:35:13;;;;;;;7.72;5.00;;;13.80;67.40;;;;;;5073753;28;20052;-83
2022/05/12 04:37:44;;;;;;;13.02;4.78;;;14.10;66.70;;;;;;5073119;28;20028;-84
2022/05/12 04:40:15;;;;;;;10.35;4.90;;;14.30;64.50;;;;;;5073317;28;20048;-84
2022/05/12 04:42:41;;;;;;;13.80;5.43;;;14.30;64.30;;;;;;5072767;28;20459;-82
2022/05/12 04:45:08;;;;;;;10.55;4.88;;;14.40;64.10;;;;;;5072816;28;20095;-83
2022/05/12 04:47:34;;;;;;;9.43;4.80;;;14.40;64.70;;;;;;5073981;28;20021;-83
2022/05/12 04:50:00;;;;;;;18.10;5.32;;;14.60;64.20;;;;;;5072637;28;20024;-83
2022/05/12 04:52:27;;;;;;;11.75;4.93;;;14.70;63.90;;;;;;5073418;28;20056;-83
2022/05/12 04:54:54;;;;;;;16.63;4.57;;;14.80;64.00;;;;;;5073488;28;20070;-84
2022/05/12 04:57:21;;;;;;;13.38;4.90;;;15.10;63.70;;;;;;5072470;28;20028;-84
2022/05/12 04:59:47;;;;;;;18.60;5.50;;;15.50;62.40;;;;;;5072264;28;20368;-83
2022/05/12 05:02:13;;;;;;;11.02;4.32;;;15.90;61.20;;;;;;5072017;28;20166;-84
2022/05/12 05:04:39;;;;;;;9.73;4.47;;;16.30;61.80;;;;;;5071996;28;20070;-84
2022/05/12 05:07:06;;;;;;;12.73;4.60;;;16.70;60.90;;;;;;5072464;28;20403;-83
2022/05/12 05:09:32;;;;;;;12.43;4.47;;;17.00;58.80;;;;;;5073755;28;20074;-84
2022/05/12 05:11:58;;;;;;;10.13;4.20;;;17.40;58.60;;;;;;5072166;28;20025;-83
2022/05/12 05:14:24;;;;;;;12.23;4.88;;;17.50;57.60;;;;;;5072250;28;20120;-85
2022/05/12 05:16:49;;;;;;;10.13;4.28;;;17.70;57.90;;;;;;5072383;28;20035;-84
2022/05/12 05:19:16;;;;;;;10.07;4.72;;;17.80;57.50;;;;;;5071948;28;20048;-82
2022/05/12 05:21:42;;;;;;;11.48;4.22;;;18.00;57.30;;;;;;5072317;28;20037;-83
2022/05/12 16:33:49;;;;;;;8.13;3.63;;;26.70;46.40;;;;;;5110874;27;20361;-86
2022/05/12 16:36:16;;;;;;;6.07;3.70;;;26.70;47.10;;;;;;5109574;28;20081;-88
2022/05/12 16:38:43;;;;;;;5.80;3.25;;;26.60;47.10;;;;;;5111158;28;20024;-88
2022/05/12 16:41:09;;;;;;;6.45;4.13;;;26.50;47.30;;;;;;5110655;28;20054;-86
2022/05/12 17:35:29;;;;;;;12.43;4.45;;;24.40;51.30;;;;;;5110717;27;20177;-86
2022/05/12 17:37:55;;;;;;;6.20;3.95;;;24.10;51.80;;;;;;5089015;28;20107;-85
2022/05/12 17:40:22;;;;;;;8.85;4.10;;;24.00;52.20;;;;;;5089959;28;20024;-86
2022/05/12 17:42:49;;;;;;;7.45;3.97;;;23.90;52.30;;;;;;5089610;28;20028;-89
2022/05/12 17:45:17;;;;;;;10.90;4.00;;;23.80;52.60;;;;;;5090023;28;20093;-89
2022/05/12 17:47:44;;;;;;;7.25;3.83;;;23.80;52.60;;;;;;5091036;28;20066;-90
2022/05/12 17:50:12;;;;;;;10.10;4.35;;;24.00;52.60;;;;;;5088872;28;20028;-87
2022/05/12 17:52:38;;;;;;;14.65;5.00;;;24.30;52.30;;;;;;5089840;28;20058;-81
2022/05/12 17:55:04;;;;;;;9.25;3.88;;;24.30;52.10;;;;;;5088359;28;20028;-87
2022/05/12 17:57:33;;;;;;;7.45;3.63;;;24.40;52.10;;;;;;5090519;28;20020;-85
2022/05/12 17:59:58;;;;;;;8.13;3.67;;;24.50;52.00;;;;;;5089207;28;20028;-86
2022/05/12 18:02:24;;;;;;;6.80;3.88;;;24.60;51.80;;;;;;5088464;28;20025;-86
2022/05/12 18:04:50;;;;;;;6.28;3.60;;;24.50;51.80;;;;;;5088868;28;20021;-85
2022/05/12 18:07:17;;;;;;;7.47;3.92;;;24.30;52.00;;;;;;5088595;28;20505;-86
2022/05/12 18:09:42;;;;;;;6.60;3.60;;;24.10;52.20;;;;;;5088801;28;20449;-85
2022/05/12 18:12:11;;;;;;;12.35;3.85;;;24.00;52.40;;;;;;5088535;28;20111;-84
2022/05/12 18:14:40;;;;;;;7.22;3.63;;;23.80;52.50;;;;;;5088488;28;20028;-85
2022/05/12 18:17:07;;;;;;;7.57;3.85;;;23.70;52.80;;;;;;5087912;28;20131;-86
2022/05/12 18:19:33;;;;;;;10.02;4.22;;;23.60;53.20;;;;;;5088557;28;20027;-87
2022/05/12 18:21:59;;;;;;;17.00;9.75;;;23.60;53.40;;;;;;5088518;28;20024;-86
2022/05/12 18:24:24;;;;;;;7.75;5.65;;;23.40;53.40;;;;;;5088273;28;20032;-86
2022/05/12 18:26:50;;;;;;;10.20;4.57;;;23.40;53.50;;;;;;5088456;28;20024;-84
2022/05/12 18:29:17;;;;;;;9.95;4.25;;;23.30;53.70;;;;;;5088529;28;20024;-85
2022/05/12 18:31:44;;;;;;;9.40;4.30;;;23.30;54.00;;;;;;5088453;28;20111;-85
2022/05/12 18:34:10;;;;;;;10.52;4.15;;;23.20;53.80;;;;;;5088391;28;20059;-89
2022/05/12 18:36:37;;;;;;;6.10;3.85;;;23.20;54.00;;;;;;5089575;28;20024;-87
2022/05/12 18:39:04;;;;;;;8.25;4.35;;;23.20;54.10;;;;;;5089817;28;20025;-93
2022/05/12 18:41:32;;;;;;;9.88;4.70;;;23.10;54.20;;;;;;5089758;28;20020;-90
2022/05/12 18:43:59;;;;;;;14.93;4.53;;;23.10;54.40;;;;;;5089863;28;20039;-89
2022/05/12 18:46:25;;;;;;;6.82;3.95;;;23.00;54.40;;;;;;5078327;28;20025;-90
2022/05/12 18:48:51;;;;;;;6.78;4.03;;;22.90;54.40;;;;;;5075165;28;20044;-89
2022/05/12 18:51:17;;;;;;;6.93;4.00;;;23.00;54.70;;;;;;5074868;28;20466;-90
2022/05/12 18:53:43;;;;;;;5.65;3.90;;;22.90;54.80;;;;;;5075128;28;20029;-89
2022/05/12 18:56:09;;;;;;;7.40;3.97;;;22.90;54.80;;;;;;5076124;28;20051;-89
2022/05/12 18:58:35;;;;;;;5.22;4.10;;;22.80;55.00;;;;;;5074836;28;20017;-87
2022/05/12 19:01:00;;;;;;;10.77;4.35;;;22.80;55.00;;;;;;5074839;28;20082;-86
2022/05/12 19:03:26;;;;;;;5.90;4.00;;;22.70;55.20;;;;;;5074813;28;20028;-90
2022/05/12 19:05:53;;;;;;;7.28;4.00;;;22.70;55.20;;;;;;5074742;28;20028;-91
2022/05/12 19:08:19;;;;;;;7.07;4.32;;;22.70;55.30;;;;;;5074870;28;20032;-90
2022/05/12 19:10:45;;;;;;;5.18;4.20;;;22.70;55.60;;;;;;5074705;28;20029;-91
2022/05/12 19:13:11;;;;;;;6.47;4.00;;;22.70;55.50;;;;;;5074663;28;20055;-92
2022/05/12 19:15:37;;;;;;;7.47;4.20;;;22.70;55.50;;;;;;5075130;28;20067;-93
2022/05/12 19:18:08;;;;;;;10.05;4.10;;;22.70;55.40;;;;;;5074975;28;20070;-92
2022/05/12 19:20:39;;;;;;;7.18;4.13;;;22.80;55.30;;;;;;5075020;28;20081;-91
2022/05/12 19:23:06;;;;;;;41.67;6.75;;;23.00;55.10;;;;;;5074689;28;20499;-92
2022/05/12 19:25:32;;;;;;;39.80;6.93;;;23.10;58.60;;;;;;5074788;28;20532;-89
2022/05/12 19:27:59;;;;;;;37.60;7.50;;;23.20;59.60;;;;;;5074387;28;20031;-89
2022/05/12 19:30:29;;;;;;;58.90;8.68;;;23.10;60.60;;;;;;5075358;28;20028;-88
2022/05/12 19:32:55;;;;;;;53.65;8.60;;;23.00;61.50;;;;;;5074495;28;20024;-89
2022/05/12 19:35:22;;;;;;;45.45;6.40;;;22.70;64.50;;;;;;5074102;28;20045;-90
2022/05/12 19:37:50;;;;;;;37.50;6.85;;;22.40;68.40;;;;;;5074497;28;20035;-89
2022/05/12 19:40:19;;;;;;;35.08;7.00;;;21.90;71.80;;;;;;5074307;28;20467;-89
2022/05/12 19:42:45;;;;;;;22.57;5.77;;;21.20;76.30;;;;;;5075359;28;20082;-92
2022/05/12 19:45:14;;;;;;;24.20;5.95;;;20.90;78.50;;;;;;5074095;28;20028;-88
2022/05/12 19:47:40;;;;;;;18.90;5.57;;;20.50;82.90;;;;;;5074101;28;20050;-86
2022/05/12 19:50:08;;;;;;;26.42;6.32;;;20.20;85.80;;;;;;5074114;28;20057;-90
2022/05/12 19:52:34;;;;;;;30.25;6.80;;;19.90;92.00;;;;;;5074202;28;20029;-88
2022/05/12 19:55:00;;;;;;;14.90;5.55;;;19.50;93.70;;;;;;5073718;28;20475;-90
2022/05/12 19:57:26;;;;;;;20.77;5.95;;;19.10;95.40;;;;;;5074124;28;20091;-89
2022/05/12 19:59:52;;;;;;;23.35;6.10;;;18.90;96.90;;;;;;5074101;28;20032;-94
2022/05/12 20:02:18;;;;;;;12.75;5.60;;;18.80;97.40;;;;;;5074107;28;20052;-94
2022/05/12 20:04:44;;;;;;;20.98;5.57;;;18.80;97.90;;;;;;5074228;28;20486;-89
2022/05/12 20:07:11;;;;;;;19.05;5.80;;;18.80;98.00;;;;;;5074915;28;20024;-91
2022/05/12 20:09:38;;;;;;;13.05;5.55;;;18.80;98.60;;;;;;5073830;28;20036;-93
2022/05/12 20:12:04;;;;;;;20.10;6.22;;;18.80;98.30;;;;;;5073948;28;20029;-92
2022/05/12 20:14:31;;;;;;;16.00;5.68;;;18.90;98.60;;;;;;5073454;28;20109;-92
2022/05/12 20:16:57;;;;;;;17.80;6.60;;;18.90;98.60;;;;;;5073699;28;20020;-92
2022/05/12 20:19:25;;;;;;;17.00;5.63;;;18.90;98.40;;;;;;5073615;28;20023;-93
2022/05/12 20:21:54;;;;;;;16.88;5.85;;;19.00;98.30;;;;;;5073473;28;20112;-91
2022/05/12 20:24:21;;;;;;;9.60;5.03;;;18.90;98.20;;;;;;5073476;28;20024;-89
2022/05/12 20:26:47;;;;;;;10.00;5.55;;;19.00;98.20;;;;;;5074352;28;20044;-91
2022/05/12 20:29:13;;;;;;;20.45;5.53;;;19.00;98.10;;;;;;5073345;28;20560;-91
2022/05/12 20:31:41;;;;;;;17.17;5.72;;;19.00;98.20;;;;;;5073180;28;20024;-89
2022/05/12 20:34:07;;;;;;;20.98;6.75;;;19.00;98.60;;;;;;5072560;28;20051;-85
2022/05/12 20:36:33;;;;;;;17.60;5.43;;;19.00;98.30;;;;;;5073757;28;20081;-87
2022/05/12 20:38:59;;;;;;;21.35;5.45;;;19.00;98.30;;;;;;5074049;28;20021;-89
2022/05/12 20:41:26;;;;;;;8.88;5.15;;;18.90;99.80;;;;;;5073941;28;20028;-90
2022/05/12 20:43:52;;;;;;;17.15;6.18;;;18.70;99.90;;;;;;5074186;28;20016;-87
2022/05/12 20:46:18;;;;;;;16.25;6.55;;;18.10;99.90;;;;;;5072911;28;20059;-87
2022/05/12 20:48:50;;;;;;;36.72;7.78;;;17.70;99.90;;;;;;5073105;28;20097;-89
2022/05/12 20:51:17;;;;;;;36.47;9.82;;;17.40;99.90;;;;;;5074229;28;20025;-88
2022/05/12 20:53:45;;;;;;;23.52;8.93;;;16.80;99.90;;;;;;5072615;28;20025;-85
2022/05/12 20:56:13;;;;;;;57.83;13.02;;;16.50;99.90;;;;;;5072398;28;20120;-86
2022/05/12 20:58:39;;;;;;;20.98;10.00;;;16.30;99.90;;;;;;5073810;28;20475;-85
2022/05/12 21:01:06;;;;;;;20.73;9.85;;;16.30;99.90;;;;;;5072642;28;20119;-86
2022/05/12 21:03:32;;;;;;;26.25;11.70;;;16.20;99.90;;;;;;5074457;28;20086;-84
2022/05/12 21:05:59;;;;;;;18.98;10.57;;;16.10;99.90;;;;;;5072467;28;20483;-86
2022/05/12 21:08:27;;;;;;;18.85;11.27;;;16.00;99.90;;;;;;5060484;28;20068;-85
2022/05/12 21:10:53;;;;;;;23.30;11.85;;;16.00;99.90;;;;;;5062819;28;20025;-86
2022/05/12 21:13:20;;;;;;;22.88;11.10;;;16.10;99.90;;;;;;5061397;28;20071;-86
2022/05/12 21:15:45;;;;;;;17.55;11.52;;;16.00;99.90;;;;;;5062799;28;20017;-85
2022/05/12 21:18:13;;;;;;;24.70;13.68;;;16.00;99.90;;;;;;5063040;28;20043;-86
2022/05/12 21:20:44;;;;;;;19.40;11.85;;;16.00;99.90;;;;;;5061551;28;20383;-85
2022/05/12 21:23:10;;;;;;;16.13;13.10;;;16.10;99.90;;;;;;5062283;28;20028;-85
2022/05/12 21:25:36;;;;;;;22.45;13.60;;;16.10;99.90;;;;;;5063470;28;20024;-85
2022/05/12 21:28:03;;;;;;;20.77;12.32;;;16.10;99.90;;;;;;5061286;28;20021;-85
2022/05/12 21:30:30;;;;;;;22.52;13.93;;;16.10;99.90;;;;;;5064049;28;20028;-85
2022/05/12 21:32:57;;;;;;;18.58;12.77;;;16.30;99.90;;;;;;5061224;28;20028;-86
2022/05/12 21:35:24;;;;;;;20.67;13.63;;;16.30;99.90;;;;;;5063946;28;20036;-86
2022/05/12 21:37:55;;;;;;;20.92;13.57;;;16.30;99.90;;;;;;5052655;28;20017;-80
2022/05/12 21:40:22;;;;;;;22.35;14.10;;;16.50;99.90;;;;;;5052687;28;20075;-85
2022/05/12 21:42:48;;;;;;;22.08;14.77;;;16.50;99.90;;;;;;5052734;28;20111;-86
2022/05/12 21:48:19;;;;;;;22.88;15.85;;;16.60;99.90;;;;;;5053874;28;20055;-86
2022/05/12 21:50:56;;;;;;;19.13;14.20;;;16.50;99.90;;;;;;5056327;28;20032;-86
2022/05/12 21:53:27;;;;;;;23.27;13.73;;;16.50;99.90;;;;;;5063056;28;20025;-86
2022/05/12 21:55:58;;;;;;;22.00;14.73;;;16.30;99.90;;;;;;5062935;28;20042;-86
2022/05/12 22:01:30;;;;;;;18.73;14.68;;;16.10;99.90;;;;;;5053768;28;20028;-86
2022/05/12 22:04:10;;;;;;;18.42;14.88;;;16.10;99.90;;;;;;5052981;28;20029;-86
2022/05/12 22:06:51;;;;;;;22.77;16.10;;;16.10;99.90;;;;;;5054175;28;20028;-86
2022/05/12 22:09:20;;;;;;;19.13;15.98;;;16.10;99.90;;;;;;5058961;28;20033;-87
2022/05/12 22:14:33;;;;;;;20.98;16.13;;;16.00;99.90;;;;;;5064086;28;20485;-87
2022/05/12 22:17:02;;;;;;;23.40;17.20;;;16.00;99.90;;;;;;5060168;28;20021;-87
2022/05/12 22:19:28;;;;;;;23.13;16.67;;;16.00;99.90;;;;;;5063703;28;20547;-87
2022/05/12 22:21:54;;;;;;;22.08;16.48;;;16.00;99.90;;;;;;5065198;28;20027;-87
2022/05/12 22:24:23;;;;;;;27.48;17.42;;;16.00;99.90;;;;;;5066959;28;20478;-88
2022/05/12 22:26:51;;;;;;;24.73;17.48;;;16.00;99.90;;;;;;5067916;28;20482;-87
2022/05/12 22:29:17;;;;;;;25.15;17.58;;;16.00;99.90;;;;;;5066303;28;20076;-86
2022/05/12 22:31:43;;;;;;;25.52;18.92;;;15.90;99.90;;;;;;5064539;28;20036;-88
2022/05/12 22:34:09;;;;;;;22.85;18.00;;;15.90;99.90;;;;;;5065699;28;20052;-88
2022/05/12 22:36:35;;;;;;;27.08;18.98;;;15.90;99.90;;;;;;5064307;28;20046;-87
2022/05/12 22:39:05;;;;;;;25.70;19.35;;;15.90;99.90;;;;;;5067768;28;20017;-88
2022/05/12 22:41:31;;;;;;;27.65;20.25;;;15.90;99.90;;;;;;5065344;28;20024;-88
2022/05/12 22:43:57;;;;;;;24.95;20.10;;;16.00;99.90;;;;;;5066165;28;20025;-87
2022/05/12 22:46:23;;;;;;;25.13;17.33;;;16.00;99.90;;;;;;5066336;28;20040;-87
2022/05/12 22:48:49;;;;;;;25.30;19.85;;;16.10;99.90;;;;;;5064662;28;20024;-86
2022/05/12 22:51:15;;;;;;;29.83;17.65;;;16.10;99.90;;;;;;5064886;28;20032;-86
2022/05/12 22:53:42;;;;;;;22.67;20.15;;;16.10;99.90;;;;;;5066020;28;20056;-86
2022/05/12 22:56:13;;;;;;;25.23;19.58;;;16.10;99.90;;;;;;5070070;28;20025;-86
2022/05/12 22:58:39;;;;;;;24.38;18.92;;;16.20;99.90;;;;;;5075491;28;20024;-86
2022/05/12 23:01:06;;;;;;;24.83;20.38;;;16.20;99.90;;;;;;5075532;28;20036;-86
2022/05/12 23:03:33;;;;;;;25.65;20.48;;;16.20;99.90;;;;;;5075276;28;20028;-86
2022/05/12 23:05:59;;;;;;;25.30;20.15;;;16.20;99.90;;;;;;5075463;28;20025;-85
2022/05/12 23:08:25;;;;;;;25.63;20.48;;;16.20;99.90;;;;;;5076482;28;20031;-86
2022/05/12 23:10:52;;;;;;;28.98;19.83;;;16.10;99.90;;;;;;5076405;28;20020;-86
2022/05/12 23:13:19;;;;;;;28.67;20.50;;;16.10;99.90;;;;;;5076138;28;20029;-85
2022/05/12 23:15:46;;;;;;;28.50;21.80;;;16.00;99.90;;;;;;5075055;28;20070;-85
2022/05/12 23:18:12;;;;;;;31.95;23.38;;;15.80;99.90;;;;;;5075011;28;20075;-85
2022/05/12 23:23:22;;;;;;;26.52;20.65;;;15.60;99.90;;;;;;5076702;28;20095;-85
2022/05/12 23:25:48;;;;;;;26.55;20.92;;;15.60;99.90;;;;;;5074955;28;20025;-85
2022/05/12 23:28:14;;;;;;;25.55;19.48;;;15.60;99.90;;;;;;5076034;28;20100;-86
2022/05/12 23:30:40;;;;;;;23.88;19.60;;;15.50;99.90;;;;;;5076113;28;20092;-86
2022/05/12 23:33:06;;;;;;;24.05;20.27;;;15.50;99.90;;;;;;5075765;28;20097;-86
2022/05/12 23:35:32;;;;;;;36.88;20.33;;;15.40;99.90;;;;;;5074141;28;20142;-85
2022/05/12 23:37:59;;;;;;;29.50;20.98;;;15.40;99.90;;;;;;5074614;28;20095;-85
2022/05/12 23:40:25;;;;;;;27.38;21.60;;;15.30;99.90;;;;;;5074760;28;20105;-85
2022/05/12 23:42:51;;;;;;;26.00;21.38;;;15.30;99.90;;;;;;5075839;28;20024;-85
2022/05/12 23:45:18;;;;;;;28.50;21.83;;;15.20;99.90;;;;;;5074735;28;20483;-85
2022/05/12 23:47:44;;;;;;;24.30;21.23;;;15.20;99.90;;;;;;5074238;28;20028;-86
2022/05/12 23:50:10;;;;;;;30.58;23.08;;;15.20;99.90;;;;;;5074086;28;20123;-86
2022/05/12 23:52:36;;;;;;;27.05;21.83;;;15.10;99.90;;;;;;5075487;28;20024;-86
2022/05/12 23:55:04;;;;;;;28.05;22.98;;;15.10;99.90;;;;;;5074277;28;20031;-85
2022/05/12 23:57:30;;;;;;;29.75;22.95;;;15.00;99.90;;;;;;5074518;28;20031;-86
2022/05/12 23:59:55;;;;;;;33.20;27.17;;;15.00;99.90;;;;;;5074289;28;20016;-85
